createdAt,value
2023-05-22T00:01:43.795Z,100960.69
2023-05-22T00:04:15.977Z,100964.56
2023-05-22T00:06:45.773Z,100956.47
2023-05-22T00:09:12.662Z,100958.31
2023-05-22T00:11:39.762Z,100957.06
2023-05-22T00:14:06.695Z,100955.03
2023-05-22T00:16:36.688Z,100956.47
2023-05-22T00:19:04.122Z,100951.25
2023-05-22T00:21:35.108Z,100950.22
2023-05-22T00:24:04.902Z,100950.66
2023-05-22T00:26:32.127Z,100951.53
2023-05-22T00:29:02.036Z,100948.66
2023-05-22T00:31:29.020Z,100948.53
2023-05-22T00:33:56.228Z,100948.97
2023-05-22T00:36:23.806Z,100947.69
2023-05-22T00:38:51.242Z,100947.69
2023-05-22T00:41:18.096Z,100940.06
2023-05-22T00:43:46.455Z,100943.19
2023-05-22T00:46:14.785Z,100947.59
2023-05-22T00:48:41.631Z,100938.81
2023-05-22T00:51:09.214Z,100939.25
2023-05-22T00:53:37.313Z,100943.50
2023-05-22T00:56:07.393Z,100945.66
2023-05-22T00:58:36.033Z,100933.72
2023-05-22T01:01:02.951Z,100943.81
2023-05-22T01:03:32.935Z,100944.22
2023-05-22T01:05:59.884Z,100943.66
2023-05-22T01:08:26.741Z,100950.34
2023-05-22T01:10:58.772Z,100947.19
2023-05-22T01:13:32.290Z,100937.41
2023-05-22T01:16:11.657Z,100940.97
2023-05-22T01:18:58.389Z,100934.59
2023-05-22T01:21:43.554Z,100935.88
2023-05-22T01:24:45.740Z,100947.50
2023-05-22T01:27:26.186Z,100945.41
2023-05-22T01:29:59.272Z,100942.50
2023-05-22T01:32:30.224Z,100951.69
2023-05-22T01:34:59.958Z,100945.28
2023-05-22T01:37:27.835Z,100938.34
2023-05-22T01:39:57.714Z,100941.78
2023-05-22T01:42:24.890Z,100940.09
2023-05-22T01:44:51.780Z,100937.28
2023-05-22T01:47:18.750Z,100932.88
2023-05-22T01:49:47.465Z,100939.56
2023-05-22T01:52:37.649Z,100929.94
2023-05-22T01:55:10.463Z,100929.22
2023-05-22T01:57:47.434Z,100929.97
2023-05-22T02:00:18.692Z,100931.22
2023-05-22T02:02:53.856Z,100934.91
2023-05-22T02:05:41.582Z,100933.34
2023-05-22T02:08:13.770Z,100928.84
2023-05-22T02:10:42.689Z,100933.38
2023-05-22T02:13:10.673Z,100930.44
2023-05-22T02:15:37.950Z,100931.44
2023-05-22T02:18:10.832Z,100925.47
2023-05-22T02:20:37.983Z,100925.78
2023-05-22T02:23:05.552Z,100927.59
2023-05-22T02:25:32.482Z,100930.56
2023-05-22T02:28:00.229Z,100915.56
2023-05-22T02:30:27.103Z,100914.03
2023-05-22T02:32:54.942Z,100912.75
2023-05-22T02:35:23.848Z,100921.81
2023-05-22T02:37:52.319Z,100918.00
2023-05-22T02:40:20.945Z,100914.19
2023-05-22T02:42:47.844Z,100919.38
2023-05-22T02:45:14.943Z,100918.69
2023-05-22T02:47:42.249Z,100913.31
2023-05-22T02:50:09.631Z,100912.41
2023-05-22T02:52:37.380Z,100911.97
2023-05-22T02:55:04.836Z,100915.25
2023-05-22T02:57:33.089Z,100913.16
2023-05-22T03:00:00.103Z,100908.03
2023-05-22T03:02:30.058Z,100906.53
2023-05-22T03:04:59.256Z,100898.59
2023-05-22T03:07:29.950Z,100903.97
2023-05-22T03:09:57.205Z,100904.78
2023-05-22T03:12:25.009Z,100896.56
2023-05-22T03:14:54.720Z,100896.28
2023-05-22T03:17:23.177Z,100895.41
2023-05-22T03:19:50.119Z,100898.78
2023-05-22T03:22:21.457Z,100884.38
2023-05-22T03:24:48.485Z,100893.41
2023-05-22T03:27:17.417Z,100884.75
2023-05-22T03:29:49.117Z,100888.16
2023-05-22T03:32:18.392Z,100890.72
2023-05-22T03:34:49.299Z,100888.44
2023-05-22T03:37:16.298Z,100890.28
2023-05-22T03:39:47.352Z,100886.03
2023-05-22T03:42:23.000Z,100891.53
2023-05-22T03:44:50.578Z,100891.78
2023-05-22T03:47:21.404Z,100897.31
2023-05-22T03:49:48.652Z,100894.09
2023-05-22T03:52:16.909Z,100890.97
2023-05-22T03:54:43.846Z,100883.91
2023-05-22T03:57:10.838Z,100892.09
2023-05-22T03:59:38.080Z,100887.59
2023-05-22T04:02:05.745Z,100882.06
2023-05-22T04:04:34.353Z,100879.84
2023-05-22T04:07:05.730Z,100881.41
2023-05-22T04:09:36.243Z,100879.13
2023-05-22T04:12:03.962Z,100885.56
2023-05-22T04:14:31.355Z,100890.06
2023-05-22T04:16:59.220Z,100889.22
2023-05-22T04:19:30.988Z,100889.97
2023-05-22T04:22:01.055Z,100889.00
2023-05-22T04:24:28.050Z,100890.44
2023-05-22T04:27:00.513Z,100885.78
2023-05-22T04:29:28.833Z,100886.78
2023-05-22T04:31:58.473Z,100888.47
2023-05-22T04:34:26.280Z,100886.41
2023-05-22T04:36:56.567Z,100891.63
2023-05-22T04:39:26.493Z,100884.03
2023-05-22T04:41:53.275Z,100891.84
2023-05-22T04:44:23.376Z,100889.16
2023-05-22T04:46:52.211Z,100887.19
2023-05-22T04:49:19.328Z,100885.78
2023-05-22T04:51:49.048Z,100885.50
2023-05-22T04:54:37.849Z,100879.56
2023-05-22T04:57:25.878Z,100881.00
2023-05-22T05:00:15.898Z,100881.28
2023-05-22T05:02:43.538Z,100885.84
2023-05-22T05:05:11.275Z,100877.66
2023-05-22T05:07:39.674Z,100879.75
2023-05-22T05:10:10.165Z,100879.06
2023-05-22T05:12:37.512Z,100875.66
2023-05-22T05:15:04.908Z,100879.91
2023-05-22T05:17:32.127Z,100880.03
2023-05-22T05:19:59.150Z,100879.63
2023-05-22T05:22:26.321Z,100879.31
2023-05-22T05:24:53.416Z,100878.19
2023-05-22T05:27:20.487Z,100877.31
2023-05-22T05:29:50.745Z,100867.69
2023-05-22T05:32:32.442Z,100880.97
2023-05-22T05:35:12.878Z,100890.19
2023-05-22T05:37:44.884Z,100888.91
2023-05-22T05:40:16.450Z,100893.25
2023-05-22T05:42:48.706Z,100891.56
2023-05-22T05:45:20.801Z,100893.69
2023-05-22T05:47:47.817Z,100891.66
2023-05-22T05:50:16.025Z,100895.38
2023-05-22T05:52:43.353Z,100890.66
2023-05-22T05:55:14.674Z,100893.63
2023-05-22T05:57:41.769Z,100900.72
2023-05-22T06:00:13.781Z,100895.03
2023-05-22T06:02:44.028Z,100895.13
2023-05-22T06:05:24.824Z,100896.97
2023-05-22T06:07:59.531Z,100889.16
2023-05-22T06:10:26.707Z,100893.78
2023-05-22T06:13:01.159Z,100887.72
2023-05-22T06:15:30.352Z,100887.00
2023-05-22T06:18:00.346Z,100889.78
2023-05-22T06:20:27.985Z,100893.28
2023-05-22T06:22:54.864Z,100892.69
2023-05-22T06:25:26.219Z,100883.47
2023-05-22T06:27:57.802Z,100890.16
2023-05-22T06:30:38.741Z,100889.41
2023-05-22T06:33:09.358Z,100888.19
2023-05-22T06:35:41.101Z,100881.00
2023-05-22T06:38:08.256Z,100880.25
2023-05-22T06:40:35.409Z,100888.03
2023-05-22T06:43:22.481Z,100883.50
2023-05-22T06:45:56.469Z,100878.34
2023-05-22T06:48:25.074Z,100884.91
2023-05-22T06:51:14.033Z,100884.53
2023-05-22T06:53:42.045Z,100884.19
2023-05-22T06:56:16.850Z,100892.47
2023-05-22T06:58:54.130Z,100888.28
2023-05-22T07:01:24.360Z,100883.59
2023-05-22T07:04:09.327Z,100878.25
2023-05-22T07:06:42.001Z,100882.34
2023-05-22T07:09:11.306Z,100877.69
2023-05-22T07:11:38.518Z,100885.31
2023-05-22T07:14:05.497Z,100880.44
2023-05-22T07:16:32.688Z,100877.22
2023-05-22T07:19:03.654Z,100880.06
2023-05-22T07:21:32.159Z,100883.00
2023-05-22T07:23:59.083Z,100887.06
2023-05-22T07:26:30.176Z,100884.59
2023-05-22T07:29:04.807Z,100880.25
2023-05-22T07:31:34.840Z,100875.06
2023-05-22T07:34:02.778Z,100875.09
2023-05-22T07:36:32.085Z,100881.81
2023-05-22T07:39:01.961Z,100874.38
2023-05-22T07:41:31.846Z,100883.53
2023-05-22T07:43:59.113Z,100879.72
2023-05-22T07:46:31.521Z,100873.31
2023-05-22T07:49:07.136Z,100858.81
2023-05-22T07:51:35.093Z,100870.50
2023-05-22T07:54:02.079Z,100872.19
2023-05-22T07:56:29.000Z,100868.63
2023-05-22T07:58:58.496Z,100872.16
2023-05-22T08:01:28.416Z,100879.41
2023-05-22T08:03:55.719Z,100869.28
2023-05-22T08:06:25.296Z,100871.34
2023-05-22T08:08:55.192Z,100872.88
2023-05-22T08:11:22.147Z,100862.44
2023-05-22T08:13:49.117Z,100866.06
2023-05-22T08:16:16.090Z,100867.94
2023-05-22T08:18:45.705Z,100865.75
2023-05-22T08:21:12.728Z,100870.66
2023-05-22T08:23:43.800Z,100866.41
2023-05-22T08:26:10.647Z,100870.81
2023-05-22T08:28:37.734Z,100855.09
2023-05-22T08:31:04.709Z,100857.47
2023-05-22T08:33:34.658Z,100861.88
2023-05-22T08:36:01.487Z,100860.16
2023-05-22T08:38:28.481Z,100856.44
2023-05-22T08:40:56.068Z,100852.22
2023-05-22T08:43:23.768Z,100851.38
2023-05-22T08:46:00.097Z,100841.72
2023-05-22T08:48:32.881Z,100850.50
2023-05-22T08:51:04.523Z,100843.72
2023-05-22T08:53:34.694Z,100844.88
2023-05-22T08:56:02.732Z,100840.47
2023-05-22T08:58:30.117Z,100831.66
2023-05-22T09:00:57.710Z,100837.91
2023-05-22T09:03:29.059Z,100827.59
2023-05-22T09:05:56.162Z,100831.28
2023-05-22T09:08:26.299Z,100820.56
2023-05-22T09:10:55.358Z,100823.44
2023-05-22T09:13:30.481Z,100820.72
2023-05-22T09:16:09.952Z,100819.19
2023-05-22T09:18:41.323Z,100814.97
2023-05-22T09:21:25.788Z,100816.25
2023-05-22T09:24:00.297Z,100819.22
2023-05-22T09:26:33.847Z,100813.63
2023-05-22T09:29:01.337Z,100805.34
2023-05-22T09:31:51.734Z,100808.25
2023-05-22T09:34:18.671Z,100813.03
2023-05-22T09:36:45.584Z,100820.44
2023-05-22T09:39:17.741Z,100808.75
2023-05-22T09:41:46.815Z,100814.00
2023-05-22T09:44:17.526Z,100817.41
2023-05-22T09:46:46.033Z,100802.81
2023-05-22T09:49:16.695Z,100810.13
2023-05-22T09:51:48.410Z,100813.63
2023-05-22T09:54:16.527Z,100811.22
2023-05-22T09:56:44.169Z,100805.56
2023-05-22T09:59:12.850Z,100806.63
2023-05-22T10:01:42.941Z,100802.66
2023-05-22T10:04:11.249Z,100793.47
2023-05-22T10:06:39.512Z,100792.47
2023-05-22T10:09:09.395Z,100790.53
2023-05-22T10:11:36.672Z,100786.06
2023-05-22T10:14:05.268Z,100800.66
2023-05-22T10:16:34.431Z,100789.38
2023-05-22T10:19:01.629Z,100789.56
2023-05-22T10:21:32.749Z,100797.16
2023-05-22T10:24:00.384Z,100790.34
2023-05-22T10:26:27.566Z,100794.00
2023-05-22T10:29:11.758Z,100786.16
2023-05-22T10:31:51.945Z,100790.56
2023-05-22T10:34:36.097Z,100780.28
2023-05-22T10:37:22.706Z,100772.56
2023-05-22T10:39:55.190Z,100778.66
2023-05-22T10:42:26.038Z,100764.59
2023-05-22T10:44:53.517Z,100770.72
2023-05-22T10:47:20.472Z,100771.25
2023-05-22T10:49:47.961Z,100765.81
2023-05-22T10:52:15.230Z,100761.69
2023-05-22T10:54:46.412Z,100756.53
2023-05-22T10:57:18.417Z,100757.66
2023-05-22T10:59:48.047Z,100740.88
2023-05-22T11:02:22.945Z,100741.50
2023-05-22T11:04:50.043Z,100746.00
2023-05-22T11:07:16.918Z,100731.97
2023-05-22T11:09:48.915Z,100733.91
2023-05-22T11:40:53.528Z,100720.78
2023-05-22T11:43:31.764Z,100722.34
2023-05-22T11:46:09.588Z,100718.94
2023-05-22T11:48:36.919Z,100714.31
2023-05-22T11:51:07.158Z,100708.97
2023-05-22T11:53:37.907Z,100714.75
2023-05-22T11:56:06.066Z,100690.81
2023-05-22T11:58:36.306Z,100702.59
2023-05-22T12:01:06.441Z,100698.66
2023-05-22T12:03:44.209Z,100700.97
2023-05-22T12:06:16.427Z,100675.47
2023-05-22T12:08:45.242Z,100692.88
2023-05-22T12:11:14.255Z,100678.13
2023-05-22T12:13:43.700Z,100682.50
2023-05-22T12:16:26.105Z,100687.13
2023-05-22T12:18:59.443Z,100680.22
2023-05-22T12:21:27.184Z,100685.00
2023-05-22T12:23:55.305Z,100682.19
2023-05-22T12:26:24.608Z,100687.09
2023-05-22T12:28:55.688Z,100679.56
2023-05-22T12:31:27.791Z,100678.75
2023-05-22T12:33:58.277Z,100668.31
2023-05-22T12:36:41.855Z,100670.78
2023-05-22T12:39:16.041Z,100679.34
2023-05-22T12:41:44.061Z,100671.22
2023-05-22T12:44:11.237Z,100673.97
2023-05-22T12:46:38.687Z,100672.75
2023-05-22T12:49:05.628Z,100668.78
2023-05-22T12:51:33.009Z,100670.25
2023-05-22T12:54:00.331Z,100677.16
2023-05-22T12:56:27.456Z,100671.78
2023-05-22T12:58:54.648Z,100666.09
2023-05-22T13:01:24.456Z,100663.19
2023-05-22T13:03:54.455Z,100667.88
2023-05-22T13:06:22.658Z,100660.50
2023-05-22T13:08:49.607Z,100662.63
2023-05-22T13:11:17.250Z,100668.50
2023-05-22T13:13:44.209Z,100663.06
2023-05-22T13:16:11.664Z,100648.53
2023-05-22T13:18:40.796Z,100656.72
2023-05-22T13:21:07.756Z,100660.00
2023-05-22T13:23:34.685Z,100656.88
2023-05-22T13:26:02.408Z,100654.13
2023-05-22T13:28:32.283Z,100653.91
2023-05-22T13:30:59.195Z,100645.78
2023-05-22T13:33:26.304Z,100646.47
2023-05-22T13:35:53.218Z,100640.50
2023-05-22T13:38:22.813Z,100637.56
2023-05-22T13:40:50.123Z,100634.59
2023-05-22T13:43:20.476Z,100640.00
2023-05-22T13:45:48.470Z,100636.38
2023-05-22T13:48:15.348Z,100634.75
2023-05-22T13:50:42.339Z,100626.34
2023-05-22T13:53:09.455Z,100625.47
2023-05-22T13:55:36.386Z,100630.91
2023-05-22T13:58:04.347Z,100627.56
2023-05-22T14:00:31.417Z,100618.28
2023-05-22T14:02:58.419Z,100618.13
2023-05-22T14:05:27.576Z,100614.31
2023-05-22T14:07:56.238Z,100609.84
2023-05-22T14:10:23.270Z,100609.16
2023-05-22T14:12:50.460Z,100612.81
2023-05-22T14:15:18.005Z,100608.53
2023-05-22T14:17:46.972Z,100608.38
2023-05-22T14:20:14.125Z,100610.75
2023-05-22T14:22:56.016Z,100608.47
2023-05-22T14:25:25.410Z,100598.69
2023-05-22T14:27:52.368Z,100601.59
2023-05-22T14:30:19.637Z,100604.91
2023-05-22T14:32:47.292Z,100593.47
2023-05-22T14:35:16.863Z,100592.81
2023-05-22T14:37:46.651Z,100599.66
2023-05-22T14:40:14.428Z,100588.28
2023-05-22T14:42:41.584Z,100591.34
2023-05-22T14:45:09.313Z,100587.28
2023-05-22T14:47:36.351Z,100584.38
2023-05-22T14:50:17.998Z,100580.38
2023-05-22T14:52:51.286Z,100591.19
2023-05-22T14:55:18.559Z,100587.75
2023-05-22T14:57:46.795Z,100581.44
2023-05-22T15:03:13.816Z,100583.41
2023-05-22T15:05:42.188Z,100570.78
2023-05-22T15:08:09.424Z,100567.91
2023-05-22T15:10:59.837Z,100574.13
2023-05-22T15:19:56.365Z,100560.31
2023-05-22T15:22:23.205Z,100564.34
2023-05-22T15:25:06.529Z,100562.56
2023-05-22T15:27:35.403Z,100562.03
2023-05-22T15:30:07.157Z,100561.00
2023-05-22T15:32:37.085Z,100557.66
2023-05-22T15:35:07.993Z,100554.94
2023-05-22T15:37:36.767Z,100542.72
2023-05-22T15:40:04.725Z,100544.59
2023-05-22T15:42:32.477Z,100537.31
2023-05-22T15:45:01.887Z,100538.72
2023-05-22T15:47:29.661Z,100534.06
2023-05-22T15:49:56.669Z,100528.66
2023-05-22T15:52:24.854Z,100532.47
2023-05-22T15:54:52.096Z,100524.72
2023-05-22T15:57:20.250Z,100509.38
2023-05-22T15:59:51.135Z,100511.47
2023-05-22T16:02:21.745Z,100512.53
2023-05-22T16:04:49.566Z,100509.41
2023-05-22T16:07:20.298Z,100509.38
2023-05-22T16:09:47.295Z,100507.06
2023-05-22T16:12:14.704Z,100511.47
2023-05-22T16:14:41.955Z,100508.72
2023-05-22T16:17:12.449Z,100509.56
2023-05-22T16:19:39.473Z,100510.59
2023-05-22T16:22:06.532Z,100514.41
2023-05-22T16:24:35.661Z,100512.31
2023-05-22T16:27:02.932Z,100502.69
2023-05-22T16:29:33.263Z,100500.13
2023-05-22T16:32:03.975Z,100511.44
2023-05-22T16:34:33.964Z,100508.41
2023-05-22T16:37:01.260Z,100512.78
2023-05-22T16:39:28.559Z,100503.19
2023-05-22T16:41:55.535Z,100502.63
2023-05-22T16:44:22.348Z,100501.22
2023-05-22T16:46:50.358Z,100497.00
2023-05-22T16:49:20.765Z,100500.78
2023-05-22T16:51:47.664Z,100501.19
2023-05-22T16:54:17.619Z,100495.34
2023-05-22T16:56:44.607Z,100509.16
2023-05-22T16:59:11.542Z,100502.88
2023-05-22T17:01:44.489Z,100501.19
2023-05-22T17:04:16.008Z,100500.38
2023-05-22T17:06:43.955Z,100501.00
2023-05-22T17:09:11.455Z,100502.03
2023-05-22T17:11:38.392Z,100503.72
2023-05-22T17:14:05.455Z,100494.69
2023-05-22T17:16:33.632Z,100502.03
2023-05-22T17:19:02.160Z,100496.97
2023-05-22T17:21:31.009Z,100503.72
2023-05-22T17:23:58.113Z,100494.88
2023-05-22T17:26:25.892Z,100492.13
2023-05-22T17:28:54.049Z,100498.16
2023-05-22T17:31:22.280Z,100490.47
2023-05-22T17:33:49.124Z,100491.28
2023-05-22T17:36:16.264Z,100499.25
2023-05-22T17:38:43.136Z,100499.09
2023-05-22T17:41:10.087Z,100496.34
2023-05-22T17:43:38.395Z,100498.25
2023-05-22T17:46:08.900Z,100495.94
2023-05-22T17:48:35.894Z,100496.19
2023-05-22T17:51:07.156Z,100483.97
2023-05-22T17:53:35.181Z,100484.41
2023-05-22T17:56:03.747Z,100490.25
2023-05-22T17:58:32.949Z,100486.28
2023-05-22T18:01:03.199Z,100490.25
2023-05-22T18:03:30.584Z,100478.44
2023-05-22T18:05:57.890Z,100485.75
2023-05-22T18:08:24.841Z,100480.91
2023-05-22T18:10:51.920Z,100475.16
2023-05-22T18:13:19.835Z,100472.88
2023-05-22T18:15:46.800Z,100476.28
2023-05-22T18:18:18.401Z,100472.25
2023-05-22T18:20:48.105Z,100469.56
2023-05-22T18:23:15.176Z,100466.22
2023-05-22T18:25:45.238Z,100461.63
2023-05-22T18:28:12.138Z,100468.81
2023-05-22T18:30:39.358Z,100456.09
2023-05-22T18:33:06.515Z,100456.59
2023-05-22T18:35:33.505Z,100460.47
2023-05-22T18:38:00.403Z,100451.91
2023-05-22T18:40:27.286Z,100449.81
2023-05-22T18:42:55.301Z,100450.88
2023-05-22T18:45:25.132Z,100455.56
2023-05-22T18:47:52.081Z,100460.03
2023-05-22T18:50:19.373Z,100457.78
2023-05-22T18:53:04.276Z,100459.69
2023-05-22T18:55:31.467Z,100459.97
2023-05-22T18:57:58.561Z,100463.47
2023-05-22T19:00:25.637Z,100477.34
2023-05-22T19:02:55.876Z,100470.41
2023-05-22T19:05:23.043Z,100469.38
2023-05-22T19:07:50.367Z,100472.25
2023-05-22T19:10:17.625Z,100477.22
2023-05-22T19:12:44.788Z,100479.34
2023-05-22T19:15:12.041Z,100485.59
2023-05-22T19:17:39.142Z,100484.53
2023-05-22T19:20:07.626Z,100483.41
2023-05-22T19:22:34.601Z,100480.56
2023-05-22T19:25:03.032Z,100481.25
2023-05-22T19:27:30.104Z,100473.53
2023-05-22T19:29:57.361Z,100490.03
2023-05-22T19:32:24.403Z,100493.13
2023-05-22T19:34:51.447Z,100489.78
2023-05-22T19:37:18.391Z,100492.56
2023-05-22T19:39:45.458Z,100489.53
2023-05-22T19:42:12.728Z,100487.66
2023-05-22T19:44:39.570Z,100495.16
2023-05-22T19:47:06.595Z,100491.78
2023-05-22T19:49:37.209Z,100488.41
2023-05-22T19:52:06.078Z,100494.00
2023-05-22T19:54:33.170Z,100497.72
2023-05-22T19:57:00.319Z,100493.19
2023-05-22T19:59:27.666Z,100494.19
2023-05-22T20:01:54.925Z,100491.38
2023-05-22T20:04:22.068Z,100494.56
2023-05-22T20:06:49.141Z,100498.78
2023-05-22T20:09:16.554Z,100496.25
2023-05-22T20:11:43.544Z,100490.34
2023-05-22T20:14:12.723Z,100491.22
2023-05-22T20:16:39.811Z,100494.59
2023-05-22T20:19:07.102Z,100493.59
2023-05-22T20:21:34.075Z,100493.78
2023-05-22T20:24:04.720Z,100488.72
2023-05-22T20:26:31.638Z,100494.31
2023-05-22T20:28:58.558Z,100493.63
2023-05-22T20:31:26.179Z,100488.22
2023-05-22T20:33:53.088Z,100490.75
2023-05-22T20:36:20.096Z,100489.94
2023-05-22T20:38:47.091Z,100494.66
2023-05-22T20:41:14.131Z,100493.84
2023-05-22T20:43:43.633Z,100490.63
2023-05-22T20:46:10.833Z,100493.16
2023-05-22T20:48:38.834Z,100488.28
2023-05-22T20:51:06.188Z,100495.69
2023-05-22T20:53:33.472Z,100498.41
2023-05-22T20:56:00.397Z,100499.59
2023-05-22T20:58:27.633Z,100494.72
2023-05-22T21:00:54.637Z,100493.03
2023-05-22T21:03:23.003Z,100493.22
2023-05-22T21:05:51.104Z,100493.34
2023-05-22T21:08:18.034Z,100500.47
2023-05-22T21:10:45.099Z,100493.53
2023-05-22T21:13:11.944Z,100497.09
2023-05-22T21:15:38.879Z,100499.97
2023-05-22T21:18:06.256Z,100499.47
2023-05-22T21:20:33.182Z,100495.22
2023-05-22T21:23:00.154Z,100497.59
2023-05-22T21:25:28.323Z,100497.91
2023-05-22T21:27:55.363Z,100494.38
2023-05-22T21:30:23.326Z,100494.03
2023-05-22T21:32:50.332Z,100497.56
2023-05-22T21:35:17.303Z,100494.72
2023-05-22T21:37:44.159Z,100496.41
2023-05-22T21:40:11.522Z,100492.03
2023-05-22T21:42:46.451Z,100492.19
2023-05-22T21:45:14.425Z,100492.34
2023-05-22T21:47:41.608Z,100489.13
2023-05-22T21:50:08.879Z,100497.75
2023-05-22T21:52:36.199Z,100500.94
2023-05-22T21:55:03.443Z,100496.56
2023-05-22T21:57:30.404Z,100490.13
2023-05-22T21:59:57.431Z,100495.88
2023-05-22T22:02:24.877Z,100485.78
2023-05-22T22:04:52.020Z,100487.28
2023-05-22T22:07:21.757Z,100492.69
2023-05-22T22:09:48.807Z,100482.56
2023-05-22T22:12:15.928Z,100483.06
2023-05-22T22:14:42.813Z,100476.97
2023-05-22T22:17:09.755Z,100479.00
2023-05-22T22:19:36.744Z,100475.09
2023-05-22T22:22:04.931Z,100486.25
2023-05-22T22:24:31.920Z,100476.28
2023-05-22T22:26:59.019Z,100478.16
2023-05-22T22:29:26.377Z,100470.06
2023-05-22T22:31:53.184Z,100466.19
2023-05-22T22:34:20.172Z,100466.84
2023-05-22T22:36:47.644Z,100461.09
2023-05-22T22:39:14.711Z,100457.88
2023-05-22T22:41:43.374Z,100459.75
2023-05-22T22:44:10.742Z,100458.56
2023-05-22T22:46:37.800Z,100449.47
2023-05-22T22:49:05.018Z,100446.25
2023-05-22T22:51:31.887Z,100448.25
2023-05-22T22:53:58.893Z,100452.47
2023-05-22T22:56:29.604Z,100448.59
2023-05-22T22:58:57.429Z,100448.47
2023-05-22T23:01:24.713Z,100448.78
2023-05-22T23:03:52.373Z,100448.28
2023-05-22T23:06:19.626Z,100444.38
2023-05-22T23:08:49.250Z,100439.50
2023-05-22T23:11:16.868Z,100435.97
2023-05-22T23:13:43.844Z,100434.75
2023-05-22T23:16:11.340Z,100434.09
2023-05-22T23:18:38.569Z,100419.25
2023-05-22T23:21:06.943Z,100430.19
2023-05-22T23:23:33.828Z,100428.69
2023-05-22T23:26:00.931Z,100415.69
2023-05-22T23:28:27.868Z,100425.47
2023-05-22T23:30:55.169Z,100407.41
2023-05-22T23:33:22.057Z,100421.44
2023-05-22T23:35:49.000Z,100412.16
2023-05-22T23:38:16.196Z,100406.06
2023-05-22T23:40:43.300Z,100404.72
2023-05-22T23:43:10.120Z,100399.28
2023-05-22T23:45:37.297Z,100390.00
2023-05-22T23:48:04.564Z,100383.56
2023-05-22T23:50:31.779Z,100383.03
2023-05-22T23:52:58.704Z,100375.63
2023-05-22T23:55:25.551Z,100372.41
2023-05-22T23:57:52.410Z,100366.38
